createdAt,value
2022-12-17T00:01:22.232Z,-6.42
2022-12-17T00:04:07.723Z,-6.45
2022-12-17T00:06:54.636Z,-6.52
2022-12-17T00:09:44.619Z,-6.59
2022-12-17T00:12:35.039Z,-6.47
2022-12-17T00:15:22.996Z,-6.49
2022-12-17T00:18:10.182Z,-6.59
2022-12-17T00:20:55.710Z,-6.78
2022-12-17T00:23:42.346Z,-6.63
2022-12-17T00:26:27.767Z,-6.60
2022-12-17T00:29:13.291Z,-6.72
2022-12-17T00:31:58.817Z,-6.78
2022-12-17T00:34:49.261Z,-6.87
2022-12-17T00:37:35.004Z,-6.90
2022-12-17T00:40:22.734Z,-6.86
2022-12-17T00:43:18.601Z,-6.77
2022-12-17T00:46:07.559Z,-6.82
2022-12-17T00:48:53.071Z,-6.89
2022-12-17T00:51:41.320Z,-6.92
2022-12-17T00:54:28.956Z,-7.08
2022-12-17T00:57:15.085Z,-6.99
2022-12-17T01:00:15.470Z,-7.00
2022-12-17T01:03:01.095Z,-7.00
2022-12-17T01:05:46.850Z,-6.99
2022-12-17T01:08:33.992Z,-7.01
2022-12-17T01:11:19.825Z,-7.04
2022-12-17T01:14:05.500Z,-6.97
2022-12-17T01:16:51.902Z,-7.03
2022-12-17T01:19:38.404Z,-7.07
2022-12-17T01:22:23.650Z,-7.06
2022-12-17T01:25:10.770Z,-7.26
2022-12-17T01:27:56.433Z,-7.32
2022-12-17T01:30:42.366Z,-7.18
2022-12-17T01:33:37.856Z,-7.22
2022-12-17T01:36:25.309Z,-7.17
2022-12-17T01:39:10.693Z,-7.23
2022-12-17T01:42:00.321Z,-7.25
2022-12-17T01:45:08.615Z,-7.20
2022-12-17T01:47:57.683Z,-7.19
2022-12-17T01:50:47.384Z,-7.27
2022-12-17T01:53:37.128Z,-7.30
2022-12-17T01:56:24.011Z,-7.51
2022-12-17T01:59:13.520Z,-7.40
2022-12-17T02:02:11.268Z,-7.39
2022-12-17T02:05:00.335Z,-7.29
2022-12-17T02:08:00.768Z,-7.29
2022-12-17T02:10:56.568Z,-7.21
2022-12-17T02:13:49.047Z,-7.21
2022-12-17T02:16:40.593Z,-7.24
2022-12-17T02:19:44.504Z,-7.29
2022-12-17T02:22:44.786Z,-7.35
2022-12-17T02:25:41.225Z,-7.47
2022-12-17T02:28:32.206Z,-7.37
2022-12-17T02:31:18.286Z,-7.48
2022-12-17T02:34:04.718Z,-7.53
2022-12-17T02:36:52.927Z,-7.57
2022-12-17T02:39:38.814Z,-7.61
2022-12-17T02:42:24.414Z,-7.70
2022-12-17T02:45:12.395Z,-7.70
2022-12-17T02:47:58.495Z,-7.72
2022-12-17T02:50:43.664Z,-7.70
2022-12-17T02:53:29.435Z,-7.72
2022-12-17T02:56:15.178Z,-7.85
2022-12-17T02:59:00.610Z,-7.94
2022-12-17T03:01:50.056Z,-7.96
2022-12-17T03:04:35.530Z,-7.83
2022-12-17T03:07:20.939Z,-7.89
2022-12-17T03:10:07.041Z,-7.94
2022-12-17T03:12:52.309Z,-7.93
2022-12-17T03:15:39.215Z,-7.84
2022-12-17T03:18:26.570Z,-7.83
2022-12-17T03:21:12.957Z,-7.99
2022-12-17T03:23:58.903Z,-7.98
2022-12-17T03:26:44.207Z,-7.92
2022-12-17T03:29:31.757Z,-8.04
2022-12-17T03:32:17.077Z,-8.05
2022-12-17T03:35:04.654Z,-7.89
2022-12-17T03:37:49.936Z,-8.00
2022-12-17T03:40:35.793Z,-7.98
2022-12-17T03:43:25.282Z,-7.93
2022-12-17T03:46:16.083Z,-7.91
2022-12-17T03:49:02.964Z,-7.82
2022-12-17T03:51:50.305Z,-7.75
2022-12-17T03:54:40.023Z,-7.61
2022-12-17T03:57:26.814Z,-7.65
2022-12-17T04:00:14.692Z,-7.59
2022-12-17T04:03:00.320Z,-7.46
2022-12-17T04:05:45.749Z,-7.60
2022-12-17T04:08:34.944Z,-7.59
2022-12-17T04:11:22.304Z,-7.61
2022-12-17T04:14:09.212Z,-7.54
2022-12-17T04:16:55.027Z,-7.52
2022-12-17T04:19:41.025Z,-7.57
2022-12-17T04:22:26.844Z,-7.46
2022-12-17T04:25:14.881Z,-7.51
2022-12-17T04:27:59.724Z,-7.55
2022-12-17T04:30:45.626Z,-7.44
2022-12-17T04:33:30.931Z,-7.32
2022-12-17T04:36:16.311Z,-7.30
2022-12-17T04:39:02.044Z,-7.42
2022-12-17T04:41:51.068Z,-7.49
2022-12-17T04:44:36.530Z,-7.40
2022-12-17T04:47:22.246Z,-7.39
2022-12-17T04:50:10.520Z,-7.34
2022-12-17T04:53:07.851Z,-7.30
2022-12-17T04:55:53.171Z,-7.25
2022-12-17T04:58:40.716Z,-7.14
2022-12-17T05:01:26.047Z,-7.21
2022-12-17T05:04:12.519Z,-7.05
2022-12-17T05:06:58.471Z,-6.97
2022-12-17T05:09:44.360Z,-7.04
2022-12-17T05:12:30.391Z,-7.04
2022-12-17T05:15:18.412Z,-6.98
2022-12-17T05:18:04.257Z,-6.95
2022-12-17T05:20:51.019Z,-6.86
2022-12-17T05:23:43.651Z,-6.82
2022-12-17T05:26:40.458Z,-6.77
2022-12-17T05:29:26.684Z,-6.61
2022-12-17T05:32:19.526Z,-6.70
2022-12-17T05:35:05.271Z,-6.87
2022-12-17T05:37:56.042Z,-6.74
2022-12-17T05:40:42.684Z,-6.66
2022-12-17T05:43:34.223Z,-6.56
2022-12-17T05:46:21.813Z,-6.53
2022-12-17T05:49:08.555Z,-6.47
2022-12-17T05:51:53.888Z,-6.47
2022-12-17T05:54:40.741Z,-6.45
2022-12-17T05:57:29.688Z,-6.44
2022-12-17T06:00:15.051Z,-6.53
2022-12-17T06:03:01.622Z,-6.55
2022-12-17T06:05:50.340Z,-6.48
2022-12-17T06:08:38.018Z,-6.36
2022-12-17T06:11:23.685Z,-6.38
2022-12-17T06:14:09.049Z,-6.36
2022-12-17T06:16:55.170Z,-6.42
2022-12-17T06:19:41.521Z,-6.40
2022-12-17T06:22:35.940Z,-6.43
2022-12-17T06:25:21.471Z,-6.55
2022-12-17T06:28:23.506Z,-6.68
2022-12-17T06:31:10.431Z,-6.60
2022-12-17T06:33:55.849Z,-6.61
2022-12-17T06:36:42.286Z,-6.53
2022-12-17T06:39:29.743Z,-6.72
2022-12-17T06:42:15.135Z,-6.64
2022-12-17T06:45:04.199Z,-6.55
2022-12-17T06:47:52.051Z,-6.72
2022-12-17T06:50:38.455Z,-6.53
2022-12-17T06:53:25.650Z,-6.41
2022-12-17T06:56:16.140Z,-6.52
2022-12-17T06:59:02.026Z,-6.56
2022-12-17T07:01:48.108Z,-6.61
2022-12-17T07:04:33.482Z,-6.86
2022-12-17T07:07:19.603Z,-6.71
2022-12-17T07:10:14.477Z,-6.66
2022-12-17T07:13:02.421Z,-6.55
2022-12-17T07:15:48.347Z,-6.51
2022-12-17T07:18:35.140Z,-6.50
2022-12-17T07:21:20.927Z,-6.35
2022-12-17T07:24:06.546Z,-6.48
2022-12-17T07:26:54.632Z,-6.47
2022-12-17T07:29:42.101Z,-6.52
2022-12-17T07:32:27.792Z,-6.55
2022-12-17T07:35:13.082Z,-6.55
2022-12-17T07:37:58.869Z,-6.53
2022-12-17T07:40:44.503Z,-6.57
2022-12-17T07:43:31.347Z,-6.62
2022-12-17T07:46:21.458Z,-6.63
2022-12-17T07:49:06.861Z,-6.69
2022-12-17T07:51:52.822Z,-6.82
2022-12-17T07:54:38.124Z,-6.72
2022-12-17T07:57:23.682Z,-6.71
2022-12-17T08:00:09.152Z,-6.64
2022-12-17T08:02:56.332Z,-6.72
2022-12-17T08:05:42.018Z,-6.99
2022-12-17T08:08:28.160Z,-6.84
2022-12-17T08:11:13.661Z,-6.88
2022-12-17T08:13:59.495Z,-6.64
2022-12-17T08:16:44.784Z,-6.72
2022-12-17T08:19:34.403Z,-6.73
2022-12-17T08:22:22.451Z,-6.58
2022-12-17T08:25:08.322Z,-6.67
2022-12-17T08:28:11.314Z,-6.53
2022-12-17T08:31:01.693Z,-6.51
2022-12-17T08:33:47.480Z,-6.61
2022-12-17T08:36:34.582Z,-6.51
2022-12-17T08:39:20.392Z,-6.39
2022-12-17T08:42:06.331Z,-6.31
2022-12-17T08:44:52.049Z,-6.19
2022-12-17T08:47:37.806Z,-6.12
2022-12-17T08:50:24.720Z,-6.29
2022-12-17T08:53:18.182Z,-6.29
2022-12-17T08:56:06.166Z,-6.22
2022-12-17T08:58:57.201Z,-6.28
2022-12-17T09:01:47.539Z,-6.20
2022-12-17T09:04:44.985Z,-6.07
2022-12-17T09:07:30.232Z,-5.98
2022-12-17T09:10:19.136Z,-5.86
2022-12-17T09:13:07.105Z,-5.92
2022-12-17T09:15:53.676Z,-5.87
2022-12-17T09:18:40.033Z,-6.01
2022-12-17T09:21:34.802Z,-5.89
2022-12-17T09:24:19.699Z,-5.87
2022-12-17T09:27:09.559Z,-5.92
2022-12-17T09:29:55.169Z,-5.76
2022-12-17T09:32:42.027Z,-5.76
2022-12-17T09:35:29.598Z,-5.77
2022-12-17T09:38:20.214Z,-5.78
2022-12-17T09:41:08.933Z,-5.76
2022-12-17T09:44:05.657Z,-5.61
2022-12-17T09:46:58.459Z,-5.65
2022-12-17T09:49:47.075Z,-5.58
2022-12-17T09:52:36.606Z,-5.32
2022-12-17T09:55:32.606Z,-5.40
2022-12-17T09:58:21.594Z,-5.29
2022-12-17T10:01:11.465Z,-5.48
2022-12-17T10:03:55.547Z,-5.39
2022-12-17T10:06:46.072Z,-5.71
2022-12-17T10:09:34.053Z,-5.52
2022-12-17T10:12:31.152Z,-5.41
2022-12-17T10:15:17.012Z,-6.01
2022-12-17T10:18:05.668Z,-6.15
2022-12-17T10:20:55.369Z,-6.00
2022-12-17T10:23:43.081Z,-5.85
2022-12-17T10:26:28.945Z,-5.69
2022-12-17T10:29:28.888Z,-5.54
2022-12-17T10:32:19.266Z,-5.61
2022-12-17T10:35:06.318Z,-5.27
2022-12-17T10:37:54.067Z,-5.23
2022-12-17T10:40:44.851Z,-5.41
2022-12-17T10:43:48.720Z,-5.29
2022-12-17T10:46:42.988Z,-5.05
2022-12-17T10:49:34.319Z,-5.19
2022-12-17T10:52:37.603Z,-5.00
2022-12-17T10:55:25.661Z,-4.88
2022-12-17T10:58:12.391Z,-4.76
2022-12-17T11:00:59.332Z,-4.93
2022-12-17T11:04:10.479Z,-4.65
2022-12-17T11:06:59.659Z,-5.00
2022-12-17T11:10:09.002Z,-4.94
2022-12-17T11:13:01.420Z,-4.87
2022-12-17T11:15:51.444Z,-4.71
2022-12-17T11:18:46.316Z,-4.64
2022-12-17T11:21:44.541Z,-4.55
2022-12-17T11:24:54.102Z,-4.73
2022-12-17T11:27:51.460Z,-4.67
2022-12-17T11:30:37.605Z,-4.63
2022-12-17T11:33:31.626Z,-4.73
2022-12-17T11:36:25.833Z,-4.54
2022-12-17T11:39:22.954Z,-4.52
2022-12-17T11:42:16.492Z,-4.54
2022-12-17T11:45:13.677Z,-4.43
2022-12-17T11:48:06.578Z,-4.39
2022-12-17T11:51:08.458Z,-4.32
2022-12-17T11:54:09.061Z,-4.34
2022-12-17T11:56:59.827Z,-4.32
2022-12-17T11:59:53.496Z,-4.19
2022-12-17T12:03:00.460Z,-4.29
2022-12-17T12:05:57.026Z,-4.28
2022-12-17T12:08:47.246Z,-4.16
2022-12-17T12:11:43.516Z,-4.31
2022-12-17T12:14:42.787Z,-4.17
2022-12-17T12:17:45.560Z,-3.97
2022-12-17T12:20:49.010Z,-4.38
2022-12-17T12:23:43.291Z,-4.44
2022-12-17T12:26:35.370Z,-4.37
2022-12-17T12:29:31.365Z,-4.44
2022-12-17T12:32:26.333Z,-4.44
2022-12-17T12:35:15.487Z,-4.35
2022-12-17T12:38:02.345Z,-4.21
2022-12-17T12:40:57.455Z,-4.30
2022-12-17T12:43:50.427Z,-4.30
2022-12-17T12:46:41.651Z,-4.28
2022-12-17T12:49:39.242Z,-4.16
2022-12-17T12:52:29.844Z,-4.25
2022-12-17T12:55:19.250Z,-4.45
2022-12-17T12:58:16.380Z,-4.28
2022-12-17T13:01:12.707Z,-4.38
2022-12-17T13:04:08.392Z,-4.27
2022-12-17T13:06:43.949Z,-4.13
2022-12-17T13:09:30.703Z,-3.94
2022-12-17T13:12:24.938Z,-3.84
2022-12-17T13:14:58.016Z,-3.92
2022-12-17T13:17:41.265Z,-3.85
2022-12-17T13:20:34.086Z,-3.85
2022-12-17T13:23:28.328Z,-4.03
2022-12-17T13:26:17.282Z,-4.07
2022-12-17T13:28:59.579Z,-4.22
2022-12-17T13:31:30.462Z,-4.11
2022-12-17T13:34:09.985Z,-3.89
2022-12-17T13:36:45.900Z,-3.99
2022-12-17T13:39:29.159Z,-3.87
2022-12-17T13:41:57.792Z,-3.92
2022-12-17T13:44:31.636Z,-4.00
2022-12-17T13:47:01.212Z,-3.97
2022-12-17T13:49:31.192Z,-3.97
2022-12-17T13:52:11.259Z,-3.99
2022-12-17T13:54:41.295Z,-3.94
2022-12-17T13:57:16.297Z,-4.18
2022-12-17T13:59:54.996Z,-4.11
2022-12-17T14:02:28.923Z,-4.13
2022-12-17T14:05:07.225Z,-4.21
2022-12-17T14:07:40.503Z,-4.33
2022-12-17T14:10:17.852Z,-4.30
2022-12-17T14:12:51.556Z,-4.25
2022-12-17T14:15:27.373Z,-4.15
2022-12-17T14:17:59.017Z,-4.12
2022-12-17T14:20:30.384Z,-4.28
2022-12-17T14:23:03.780Z,-4.25
2022-12-17T14:25:36.836Z,-4.19
2022-12-17T14:28:09.115Z,-4.30
2022-12-17T14:31:02.625Z,-4.33
2022-12-17T14:33:32.446Z,-4.33
2022-12-17T14:36:03.528Z,-4.20
2022-12-17T14:38:38.518Z,-4.32
2022-12-17T14:41:33.809Z,-4.17
2022-12-17T14:44:04.319Z,-4.26
2022-12-17T14:46:37.423Z,-4.41
2022-12-17T14:49:13.943Z,-4.52
2022-12-17T14:51:44.291Z,-4.51
2022-12-17T14:54:22.285Z,-4.58
2022-12-17T14:56:51.816Z,-4.75
2022-12-17T14:59:31.673Z,-4.84
2022-12-17T15:02:12.945Z,-4.84
2022-12-17T15:04:42.367Z,-4.68
2022-12-17T15:07:18.222Z,-4.73
2022-12-17T15:09:48.093Z,-4.70
2022-12-17T15:12:19.584Z,-4.70
2022-12-17T15:14:50.463Z,-4.80
2022-12-17T15:17:22.173Z,-4.85
2022-12-17T15:19:56.165Z,-4.81
2022-12-17T15:22:26.336Z,-4.77
2022-12-17T15:24:54.823Z,-4.81
2022-12-17T15:27:23.641Z,-4.79
2022-12-17T15:29:52.136Z,-4.88
2022-12-17T15:32:31.517Z,-4.76
2022-12-17T15:35:00.165Z,-4.93
2022-12-17T15:37:29.676Z,-4.87
2022-12-17T15:39:57.879Z,-4.89
2022-12-17T15:42:43.703Z,-4.96
2022-12-17T15:45:12.713Z,-4.97
2022-12-17T15:47:42.766Z,-4.88
2022-12-17T15:50:12.045Z,-4.97
2022-12-17T15:52:40.828Z,-5.18
2022-12-17T15:55:09.822Z,-5.12
2022-12-17T15:57:38.419Z,-5.14
2022-12-17T16:00:07.459Z,-5.06
2022-12-17T16:02:37.403Z,-4.97
2022-12-17T16:05:12.038Z,-5.11
2022-12-17T16:07:40.593Z,-5.21
2022-12-17T16:10:09.718Z,-5.43
2022-12-17T16:12:37.849Z,-5.32
2022-12-17T16:15:12.052Z,-5.35
2022-12-17T16:17:40.966Z,-5.30
2022-12-17T16:20:13.384Z,-5.20
2022-12-17T16:22:42.460Z,-5.29
2022-12-17T16:25:11.113Z,-5.32
2022-12-17T16:27:40.170Z,-5.42
2022-12-17T16:30:11.312Z,-5.30
2022-12-17T16:32:39.609Z,-5.26
2022-12-17T16:35:11.444Z,-5.25
2022-12-17T16:37:40.031Z,-5.27
2022-12-17T16:40:09.618Z,-5.41
2022-12-17T16:42:39.216Z,-5.44
2022-12-17T16:45:08.656Z,-5.38
2022-12-17T16:47:37.079Z,-5.29
2022-12-17T16:50:08.824Z,-5.36
2022-12-17T16:52:38.603Z,-5.65
2022-12-17T16:55:07.556Z,-5.42
2022-12-17T16:57:36.062Z,-5.44
2022-12-17T17:00:05.272Z,-5.32
2022-12-17T17:02:34.231Z,-5.28
2022-12-17T17:05:02.643Z,-5.41
2022-12-17T17:07:32.754Z,-5.52
2022-12-17T17:10:02.629Z,-5.51
2022-12-17T17:12:34.381Z,-5.56
2022-12-17T17:15:07.106Z,-5.73
2022-12-17T17:17:54.863Z,-5.58
2022-12-17T17:20:28.636Z,-5.70
2022-12-17T17:23:02.332Z,-5.57
2022-12-17T17:25:50.584Z,-5.54
2022-12-17T17:28:21.744Z,-5.47
2022-12-17T17:30:53.101Z,-5.43
2022-12-17T17:33:21.279Z,-5.60
2022-12-17T17:35:49.580Z,-5.59
2022-12-17T17:38:18.946Z,-5.61
2022-12-17T17:41:00.196Z,-5.68
2022-12-17T17:43:28.961Z,-5.74
2022-12-17T17:46:07.614Z,-5.94
2022-12-17T17:48:37.169Z,-6.00
2022-12-17T17:51:07.755Z,-5.83
2022-12-17T17:53:36.268Z,-5.80
2022-12-17T17:56:14.974Z,-5.80
2022-12-17T17:58:45.588Z,-5.73
2022-12-17T18:01:16.647Z,-5.87
2022-12-17T18:03:46.049Z,-5.64
2022-12-17T18:06:15.429Z,-5.76
2022-12-17T18:08:45.926Z,-5.69
2022-12-17T18:11:22.893Z,-5.99
2022-12-17T18:13:57.253Z,-6.07
2022-12-17T18:16:30.930Z,-6.08
2022-12-17T18:19:02.881Z,-6.01
2022-12-17T18:21:32.628Z,-6.22
2022-12-17T18:24:07.423Z,-6.19
2022-12-17T18:26:42.586Z,-6.06
2022-12-17T18:29:12.286Z,-5.99
2022-12-17T18:31:44.838Z,-6.07
2022-12-17T18:34:19.633Z,-6.30
2022-12-17T18:36:50.139Z,-6.27
2022-12-17T18:39:20.261Z,-6.33
2022-12-17T18:42:08.790Z,-6.18
2022-12-17T18:44:40.293Z,-6.12
2022-12-17T18:47:09.041Z,-6.06
2022-12-17T18:49:37.724Z,-6.18
2022-12-17T18:52:09.375Z,-6.11
2022-12-17T18:54:42.554Z,-6.12
2022-12-17T18:57:14.668Z,-6.08
2022-12-17T18:59:43.381Z,-6.16
2022-12-17T19:02:13.610Z,-6.34
2022-12-17T19:04:44.694Z,-6.33
2022-12-17T19:07:14.293Z,-6.36
2022-12-17T19:09:42.607Z,-6.42
2022-12-17T19:12:12.811Z,-6.41
2022-12-17T19:14:41.099Z,-6.40
2022-12-17T19:17:09.561Z,-6.46
2022-12-17T19:19:37.908Z,-6.49
2022-12-17T19:22:06.360Z,-6.47
2022-12-17T19:24:34.575Z,-6.45
2022-12-17T19:27:05.585Z,-6.38
2022-12-17T19:29:36.933Z,-6.46
2022-12-17T19:32:06.124Z,-6.56
2022-12-17T19:34:35.969Z,-6.43
2022-12-17T19:37:05.093Z,-6.42
2022-12-17T19:39:34.760Z,-6.33
2022-12-17T19:42:03.601Z,-6.46
2022-12-17T19:44:31.863Z,-6.46
2022-12-17T19:47:02.211Z,-6.48
2022-12-17T19:49:30.729Z,-6.59
2022-12-17T19:52:02.485Z,-6.60
2022-12-17T19:54:31.174Z,-6.54
2022-12-17T19:57:00.369Z,-6.52
2022-12-17T19:59:30.653Z,-6.48
2022-12-17T20:02:11.448Z,-6.50
2022-12-17T20:04:41.483Z,-6.71
2022-12-17T20:07:12.190Z,-6.77
2022-12-17T20:09:41.368Z,-6.66
2022-12-17T20:12:10.053Z,-6.81
2022-12-17T20:14:38.833Z,-6.94
2022-12-17T20:17:07.824Z,-6.97
2022-12-17T20:19:36.440Z,-7.02
2022-12-17T20:22:07.974Z,-6.96
2022-12-17T20:24:37.478Z,-6.99
2022-12-17T20:27:07.467Z,-7.21
2022-12-17T20:29:35.950Z,-7.28
2022-12-17T20:32:04.851Z,-7.30
2022-12-17T20:34:36.278Z,-7.40
2022-12-17T20:37:06.691Z,-7.38
2022-12-17T20:39:36.125Z,-7.36
2022-12-17T20:42:04.752Z,-7.41
2022-12-17T20:44:33.518Z,-7.47
2022-12-17T20:47:09.173Z,-7.61
2022-12-17T20:49:37.804Z,-7.64
2022-12-17T20:52:07.845Z,-7.53
2022-12-17T20:54:36.183Z,-7.68
2022-12-17T20:57:04.738Z,-7.72
2022-12-17T20:59:33.254Z,-7.76
2022-12-17T21:02:04.228Z,-7.89
2022-12-17T21:04:34.164Z,-7.79
2022-12-17T21:07:03.485Z,-7.79
2022-12-17T21:09:35.818Z,-7.74
2022-12-17T21:12:15.620Z,-7.87
2022-12-17T21:14:44.571Z,-7.96
2022-12-17T21:17:14.617Z,-7.96
2022-12-17T21:19:43.736Z,-7.89
2022-12-17T21:22:20.889Z,-7.78
2022-12-17T21:24:53.322Z,-7.82
2022-12-17T21:27:22.841Z,-7.70
2022-12-17T21:29:53.905Z,-7.70
2022-12-17T21:32:22.453Z,-7.78
2022-12-17T21:34:51.249Z,-7.61
2022-12-17T21:37:19.948Z,-7.71
2022-12-17T21:39:56.522Z,-7.76
2022-12-17T21:42:45.289Z,-7.86
2022-12-17T21:45:13.551Z,-7.86
2022-12-17T21:47:41.848Z,-7.88
2022-12-17T21:50:12.168Z,-7.91
2022-12-17T21:52:40.945Z,-7.99
2022-12-17T21:57:56.126Z,-7.92
2022-12-17T22:00:24.815Z,-7.87
2022-12-17T22:02:56.803Z,-7.79
2022-12-17T22:05:27.739Z,-7.82
2022-12-17T22:07:56.340Z,-7.81
2022-12-17T22:10:47.111Z,-7.84
2022-12-17T22:13:32.589Z,-8.01
2022-12-17T22:16:01.452Z,-7.95
2022-12-17T22:18:30.143Z,-7.93
2022-12-17T22:20:59.539Z,-8.00
2022-12-17T22:23:28.937Z,-8.07
2022-12-17T22:26:00.385Z,-8.08
2022-12-17T22:28:31.675Z,-8.05
2022-12-17T22:31:22.805Z,-8.02
2022-12-17T22:34:14.192Z,-8.04
2022-12-17T22:38:06.624Z,-7.97
2022-12-17T22:44:29.207Z,-8.09
2022-12-17T22:44:38.629Z,-8.13
2022-12-17T22:45:26.242Z,-8.31
2022-12-17T22:47:54.870Z,-8.28
2022-12-17T22:50:28.175Z,-8.20
2022-12-17T22:53:04.393Z,-8.39
2022-12-17T22:55:34.584Z,-8.53
2022-12-17T22:58:06.632Z,-8.52
2022-12-17T23:00:36.894Z,-8.53
2022-12-17T23:03:07.080Z,-8.64
2022-12-17T23:05:35.975Z,-8.59
2022-12-17T23:08:04.449Z,-8.82
2022-12-17T23:10:34.899Z,-8.77
2022-12-17T23:13:05.172Z,-8.95
2022-12-17T23:15:37.867Z,-8.77
2022-12-17T23:18:08.329Z,-8.81
2022-12-17T23:20:37.199Z,-8.80
2022-12-17T23:23:05.716Z,-8.81
2022-12-17T23:25:36.089Z,-8.76
2022-12-17T23:28:05.599Z,-8.81
2022-12-17T23:30:39.411Z,-8.83
2022-12-17T23:33:08.887Z,-8.75
2022-12-17T23:35:37.386Z,-9.00
2022-12-17T23:38:06.609Z,-8.87
2022-12-17T23:40:35.905Z,-8.88
2022-12-17T23:43:04.401Z,-8.89
2022-12-17T23:45:32.802Z,-8.89
2022-12-17T23:48:04.438Z,-8.78
2022-12-17T23:50:32.868Z,-8.90
2022-12-17T23:53:01.558Z,-8.95
2022-12-17T23:55:30.338Z,-9.08
2022-12-17T23:58:00.569Z,-9.11
